createdAt,value
2022-08-04T04:39:01.174Z,3.55
2022-08-04T04:41:54.675Z,3.05
2022-08-04T05:03:01.739Z,2.95
2022-08-04T05:06:08.348Z,3.28
2022-08-04T05:09:12.931Z,4.22
2022-08-04T05:11:43.832Z,3.63
2022-08-04T05:14:41.480Z,3.50
2022-08-04T05:17:30.275Z,3.30
2022-08-04T05:20:27.478Z,3.33
2022-08-04T05:23:13.299Z,3.25
2022-08-04T05:25:59.437Z,3.20
2022-08-04T05:28:34.405Z,2.75
2022-08-04T05:31:08.957Z,2.78
2022-08-04T05:33:51.564Z,3.03
2022-08-04T05:36:41.076Z,2.92
2022-08-04T05:39:17.291Z,4.22
2022-08-04T05:42:12.772Z,3.22
2022-08-04T05:44:46.337Z,3.15
2022-08-04T05:47:17.403Z,3.20
2022-08-04T05:49:45.645Z,3.03
2022-08-04T05:52:30.415Z,2.92
2022-08-04T05:55:00.443Z,3.03
2022-08-04T06:03:00.649Z,3.65
2022-08-04T06:05:33.399Z,2.58
2022-08-04T06:08:12.248Z,2.55
2022-08-04T06:25:53.919Z,3.40
2022-08-04T06:59:28.645Z,2.40
2022-08-04T07:12:57.316Z,2.65
2022-08-04T17:37:52.627Z,3.90
2022-08-04T17:40:25.271Z,3.15
2022-08-04T17:44:01.401Z,3.63
2022-08-04T17:46:28.858Z,3.15
2022-08-04T17:49:23.162Z,2.40
2022-08-04T17:52:15.399Z,3.63
2022-08-04T17:55:02.821Z,2.63
2022-08-04T17:57:31.132Z,3.47
2022-08-04T18:01:10.663Z,2.63
2022-08-04T18:04:38.144Z,2.72
2022-08-04T18:12:36.839Z,3.40
2022-08-04T18:15:22.956Z,2.65
2022-08-04T18:18:20.671Z,2.30
2022-08-04T18:20:47.198Z,2.90
2022-08-04T18:23:19.042Z,2.45
2022-08-04T18:32:04.515Z,2.65
2022-08-04T18:38:06.156Z,2.58
2022-08-04T18:43:16.885Z,2.47
2022-08-04T18:45:57.979Z,2.47
2022-08-04T18:48:37.335Z,2.40
2022-08-04T18:51:23.257Z,2.33
2022-08-04T18:53:58.937Z,2.65
2022-08-04T18:56:29.810Z,2.97
2022-08-04T18:59:01.647Z,2.42
2022-08-04T19:02:13.065Z,2.92
2022-08-04T19:04:33.076Z,2.72
2022-08-04T19:07:24.624Z,2.65
2022-08-04T19:09:53.745Z,3.13
2022-08-04T19:12:26.703Z,3.10
2022-08-04T19:15:08.864Z,3.28
2022-08-04T19:17:53.744Z,3.58
2022-08-04T19:20:31.107Z,3.22
2022-08-04T19:24:28.244Z,2.67
2022-08-04T19:25:59.060Z,2.47
2022-08-04T19:28:34.015Z,2.30
2022-08-04T19:31:05.496Z,2.38
2022-08-04T19:33:58.897Z,2.47
2022-08-04T19:36:35.018Z,2.40
2022-08-04T19:39:11.518Z,2.75
2022-08-04T19:42:04.806Z,2.60
2022-08-04T19:44:53.131Z,3.25
2022-08-04T19:50:19.278Z,4.90
2022-08-04T19:52:51.885Z,4.20
2022-08-04T19:58:29.034Z,3.97
2022-08-04T20:00:57.048Z,3.53
2022-08-04T20:04:09.086Z,3.75
2022-08-04T20:06:13.279Z,3.63
2022-08-04T20:08:47.944Z,3.63
2022-08-04T20:11:18.556Z,3.38
2022-08-04T20:18:06.986Z,4.53
2022-08-04T20:20:46.068Z,4.13
2022-08-04T20:23:47.943Z,5.63
2022-08-04T20:26:10.957Z,5.63
2022-08-04T20:28:45.835Z,5.35
2022-08-04T20:31:18.415Z,5.20
2022-08-04T20:33:54.923Z,4.45
2022-08-04T20:36:23.438Z,4.40
2022-08-04T20:38:53.215Z,4.10
2022-08-04T20:41:21.897Z,4.10
2022-08-04T20:43:49.689Z,2.83
2022-08-04T20:46:29.079Z,2.97
2022-08-04T20:49:23.115Z,2.60
2022-08-04T20:52:14.736Z,3.67
2022-08-04T20:54:56.221Z,4.93
2022-08-04T21:00:40.861Z,5.43
2022-08-04T21:03:59.904Z,5.38
2022-08-04T21:06:34.015Z,4.88
2022-08-04T21:09:00.929Z,3.97
2022-08-04T21:14:29.476Z,3.38
2022-08-04T21:16:58.537Z,2.67
2022-08-04T21:22:29.752Z,3.20
2022-08-04T21:28:20.070Z,4.00
2022-08-04T21:30:52.809Z,3.67
2022-08-04T21:33:24.461Z,4.50
2022-08-04T21:36:37.166Z,4.78
2022-08-04T21:39:05.705Z,4.72
2022-08-04T21:42:19.876Z,4.60
2022-08-04T21:44:38.033Z,4.75
2022-08-04T21:47:05.105Z,4.97
2022-08-04T21:49:56.341Z,5.30
2022-08-04T21:52:25.027Z,5.15
2022-08-04T21:54:54.102Z,4.63
2022-08-04T21:57:28.121Z,6.00
2022-08-04T22:00:00.965Z,5.50
2022-08-04T22:02:39.963Z,6.28
2022-08-04T22:05:34.888Z,6.00
2022-08-04T22:08:19.714Z,6.55
2022-08-04T22:10:47.050Z,6.60
2022-08-04T22:13:22.803Z,6.18
2022-08-04T22:16:04.471Z,6.32
2022-08-04T22:18:38.917Z,6.38
2022-08-04T22:21:09.629Z,6.63
2022-08-04T22:23:45.123Z,6.53
2022-08-04T22:26:20.078Z,6.35
2022-08-04T22:29:01.362Z,6.57
2022-08-04T22:31:53.123Z,6.78
2022-08-04T22:34:25.207Z,6.15
2022-08-04T22:36:53.732Z,7.05
2022-08-04T22:39:23.465Z,6.43
2022-08-04T22:42:04.186Z,6.88
2022-08-04T22:44:38.088Z,6.28
2022-08-04T22:47:10.190Z,6.05
2022-08-04T22:50:26.715Z,5.70
2022-08-04T22:52:55.177Z,5.55
2022-08-04T22:55:23.011Z,5.78
2022-08-04T23:01:12.434Z,6.70
2022-08-04T23:03:50.871Z,6.32
2022-08-04T23:06:25.497Z,6.35
2022-08-04T23:08:57.820Z,6.60
2022-08-04T23:11:35.255Z,7.28
2022-08-04T23:14:28.977Z,7.45
2022-08-04T23:16:56.949Z,6.88
2022-08-04T23:22:16.850Z,5.90
2022-08-04T23:25:05.462Z,6.93
2022-08-04T23:27:40.239Z,7.10
2022-08-04T23:30:09.417Z,6.45
2022-08-04T23:32:36.808Z,6.65
2022-08-04T23:38:30.563Z,6.78
2022-08-04T23:41:13.297Z,7.13
2022-08-04T23:43:54.915Z,7.00
2022-08-04T23:46:28.278Z,7.03
2022-08-04T23:48:57.041Z,6.68
2022-08-04T23:51:49.787Z,6.38
2022-08-04T23:54:16.839Z,6.47
2022-08-04T23:56:58.888Z,6.38
2022-08-04T23:59:51.694Z,6.97
